Tiempo atmosférico en la estación meteorológica de Burgo de Osma, Soria (932 m.)

Fecha
DESCASC
Temp. máxima en grados centígrados (hora)
DESCASC
Temp. mínima en grados centígrados (hora)
DESCASC
Temp. media en grados centígrados
DESCASC
Racha de viento máxima en m/sg (hora)
DESCASC
Velocidad máxima media en intervalos de 10 minutos(hora)
DESCASC
Precipitaciones diarias en mm
DESCASC
Precipitaciones de 00:00 a 06:00 en mm
DESCASC
Precipitaciones de 06:00 a 12:00 en mm
DESCASC
Precipitaciones de 12:00 a 18:00 en mm
DESCASC
Precipitaciones de 18:00 a 24:00 en mm
DESCASC
21-09-2017 27.1 (15:50) 3.6 (07:50) 15.4 9.17 (16:10) 5.56 (21:00) 0 0 0 0 0
20-09-2017 25.9 (17:20) 1.5 (07:40) 13.7 6.67 (16:50) 4.44 (17:50) 0 0 0 0 0
19-09-2017 21.7 (17:30) 2.2 (07:30) 12 10 (14:30) 5.56 (16:30) 0 0 0 0 0
18-09-2017 19.9 (18:10) 4.6 (02:30) 12.2 10.28 (17:20) 6.94 (13:30) 0 0 0 0 0
17-09-2017 19.4 (18:10) -0.7 (-00:0) 9.3 11.11 (15:10) 6.39 (16:30) 0 0 0 0 0
16-09-2017 15.8 (15:50) -0.5 (-00:0) 7.7 16.67 (13:40) 7.22 (15:40) 0 0 0 0 0
15-09-2017 19.5 (16:30) 6.2 (00:00) 12.8 8.61 (19:10) 5.83 (19:10) 0 0 0 0 0
14-09-2017 23.5 (15:40) 7.6 (00:00) 15.5 13.06 (15:50) 7.22 (15:50) 0 0 0 0 0
13-09-2017 28.4 (17:50) 6.6 (00:00) 17.5 12.22 (15:40) 6.67 (15:50) 0 0 0 0 0
12-09-2017 22.5 (18:00) 9.6 (00:00) 16.1 11.67 (18:10) 7.5 (17:30) 0 0 0 0 0
11-09-2017 25 (17:20) 9.5 (00:00) 17.3 13.89 (13:20) 10 (18:40) 0 0 0 0 0
10-09-2017 20.5 (18:20) 7.3 (00:00) 13.9 12.5 (15:50) 8.61 (16:10) 0 0 0 0 0
09-09-2017 19.8 (16:30) 9.2 (00:00) 14.5 18.06 (19:50) 11.39 (19:50) 0.8 0 0 0 0.8
08-09-2017 27.2 (16:30) 5.4 (00:00) 16.3 12.22 (17:10) 8.33 (17:10) 0 0 0 0 0
07-09-2017 26.1 (17:10) 5.3 (00:00) 15.7 9.17 (18:30) 6.67 (19:30) 0 0 0 0 0
06-09-2017 29.2 (16:30) 12.8 (00:00) 21 8.89 (17:40) 5.83 (19:10) 0 0 0 0 0
05-09-2017 30 (18:30) 10.3 (00:00) 20.2 7.22 (16:30) 4.17 (17:20) 0 0 0 0 0
04-09-2017 27.9 (18:10) 12.6 (00:00) 20.3 7.5 (09:20) 5 (03:50) 0 0 0 0 0
03-09-2017 27.1 (17:20) 8.9 (00:00) 18 11.39 (13:10) 7.5 (15:00) 0 0 0 0 0
02-09-2017 24.4 (17:20) 4.3 (00:00) 14.3 8.33 (18:50) 4.72 (19:30) 0 0 0 0 0
01-09-2017 22.5 (17:10) 7.5 (00:00) 15 11.67 (17:50) 5.83 (17:20) 0 0 0 0 0
31-08-2017 23.7 (18:10) 13.2 (00:00) 18.5 7.5 (16:30) 5 (16:30) 2.6 2.6 0 0 0
30-08-2017 23.2 (15:10) 11.7 (00:00) 17.5 9.44 (23:20) 6.67 (23:20) 0 0 0 0 0
29-08-2017 25.7 (16:10) 12.7 (00:00) 19.2 10.28 (16:50) 7.5 (17:00) 0.2 0.2 0 0 0
28-08-2017 21.1 (14:50) 13.6 (00:00) 17.4 15 (15:20) 10 (15:30) 45 0 12.2 16.8 16
27-08-2017 23.2 (12:50) 15 (00:00) 19.1 15.83 (14:10) 10 (14:20) 3.4 0 0.8 2.6 0
26-08-2017 30.2 (15:20) 10.7 (00:00) 20.5 16.39 (19:00) 10.83 (19:00) 0 0 0 0 0
25-08-2017 33.8 (17:00) 10 (00:00) 21.9 11.39 (16:40) 7.5 (19:10) 0 0 0 0 0
24-08-2017 33.7 (17:20) 16.5 (00:00) 25.1 12.78 (15:20) 8.06 (14:30) 0 0 0 0 0

Gráficas

Temp. máximas Temp. mínimas Temp. medias Precipitaciones Rachas de viento máximas Velocidades máximas media en intervalos de 10 minutos

Datos horarios

Fecha y hora oficial Temperatura (ºC) Velocidad del viento (km/h) Dirección del viento Racha (km/h) Dirección de racha Precipitación (mm) Presión (hPa) Tendencia (hPa) Humedad (%)
2017-09-22 23:00:00 13 10 Este 17 Este 0 -- -- 74
2017-09-22 22:00:00 14.4 8 Este 13 Este 0 -- -- 70
2017-09-22 21:00:00 15.6 7 Este 22 Este 0 -- -- 66
2017-09-22 20:00:00 17.8 18 Este 27 Este 0 -- -- 59
2017-09-22 19:00:00 19.7 21 Este 36 Este 0 -- -- 52
2017-09-22 18:00:00 19.1 23 Este 33 Este 0 -- -- 53
2017-09-22 17:00:00 19 23 Este 33 Sudeste 0 -- -- 51
2017-09-22 16:00:00 18.8 19 Este 32 Este 0 -- -- 53
2017-09-22 15:00:00 18.6 19 Este 36 Este 0 -- -- 54
2017-09-22 14:00:00 19.1 22 Este 44 Este 0 -- -- 52
2017-09-22 13:00:00 20.4 31 Este 42 Este 0 -- -- 49
2017-09-22 12:00:00 19.7 18 Este 27 Este 0 -- -- 52
2017-09-22 11:00:00 16 22 Este 34 Este 0 -- -- 61
2017-09-22 10:00:00 14.7 14 Este 24 Este 0 -- -- 65
2017-09-22 09:00:00 13 10 Este 20 Este 0 -- -- 70
2017-09-22 08:00:00 13.6 17 Este 27 Este 0 -- -- 68
2017-09-22 07:00:00 12.9 10 Este 15 Este 0 -- -- 74
2017-09-22 06:00:00 11.7 3 Este 8 Este 0 -- -- 74
2017-09-22 05:00:00 11.2 4 Sudeste 13 Este 0 -- -- 74
2017-09-22 04:00:00 12.1 3 Nordeste 9 Este 0 -- -- 66
2017-09-22 03:00:00 12.1 3 Este 5 Sudeste 0 -- -- 63
2017-09-22 02:00:00 12 0 Calma 8 Sudeste 0 -- -- 62
2017-09-22 01:00:00 15.2 3 Sudeste 6 Sudeste 0 -- -- 53
2017-09-22 00:00:00 15.9 3 Nordeste 8 Nordeste 0 -- -- 49
2017-09-21 23:00:00 18.5 6 Nordeste 20 Este 0 -- -- 42
2017-09-21 22:00:00 19.7 10 Este 22 Oeste 0 -- -- 38
2017-09-21 21:00:00 21.2 20 Oeste 28 Oeste 0 -- -- 34
2017-09-21 20:00:00 22.2 13 Noroeste 18 Noroeste 0 -- -- 26
2017-09-21 19:00:00 24.1 13 Noroeste 22 Noroeste 0 -- -- 25
2017-09-21 18:00:00 24.9 16 Noroeste 32 Noroeste 0 -- -- 24
2017-09-21 17:00:00 26.5 8 Noroeste 33 Oeste 0 -- -- 23
2017-09-21 16:00:00 26.7 17 Oeste 33 Oeste 0 -- -- 23
2017-09-21 15:00:00 26.3 9 Sudoeste 31 Noroeste 0 -- -- 23
2017-09-21 14:00:00 25.5 9 Sudoeste 18 Sudoeste 0 -- -- 24
2017-09-21 13:00:00 24.7 4 Norte 11 Oeste 0 -- -- 26
2017-09-21 12:00:00 21.8 5 Sudeste 11 Este 0 -- -- 30
2017-09-21 11:00:00 18.1 3 Este 8 Este 0 -- -- 36
2017-09-21 10:00:00 10.9 3 Sudeste 5 Sudeste 0 -- -- 52
2017-09-21 09:00:00 5.4 3 Este 4 Norte 0 -- -- 72
2017-09-21 08:00:00 3.7 3 Nordeste 5 Este 0 -- -- 79
2017-09-21 07:00:00 4.1 0 Calma 5 Nordeste 0 -- -- 76
2017-09-21 06:00:00 4.7 3 Este 4 Este 0 -- -- 74
2017-09-21 05:00:00 4.8 2 Este 5 Este 0 -- -- 76
2017-09-21 04:00:00 6.1 2 Sudeste 5 Sudeste 0 -- -- 72
2017-09-21 03:00:00 6.8 3 Noroeste 5 Oeste 0 -- -- 69
2017-09-21 02:00:00 8.2 4 Este 7 Nordeste 0 -- -- 63
2017-09-21 01:00:00 8.8 4 Este 7 Este 0 -- -- 62
2017-09-21 00:00:00 9.9 3 Este 6 Este 0 -- -- 59
2017-09-20 23:00:00 11.3 3 Este 5 Sudeste 0 -- -- 57
2017-09-20 22:00:00 14.9 2 Este 6 Norte 0 -- -- 45
2017-09-20 21:00:00 18.5 2 Este 8 Noroeste 0 -- -- 33
2017-09-20 20:00:00 21.6 6 Noroeste 14 Oeste 0 -- -- 27
2017-09-20 19:00:00 25.1 9 Noroeste 18 Noroeste 0 -- -- 22
2017-09-20 18:00:00 25.5 12 Oeste 24 Oeste 0 -- -- 23
2017-09-20 17:00:00 25.5 14 Oeste 24 Oeste 0 -- -- 23
2017-09-20 16:00:00 25.6 10 Oeste 22 Oeste 0 -- -- 23
2017-09-20 15:00:00 24.6 8 Oeste 17 Sudoeste 0 -- -- 25
2017-09-20 14:00:00 24.8 4 Sudeste 13 Oeste 0 -- -- 28
2017-09-20 13:00:00 23.4 3 Norte 9 Oeste 0 -- -- 29
2017-09-20 12:00:00 20.1 4 Sudeste 10 Sudeste 0 -- -- 32
2017-09-20 11:00:00 15.6 0 Calma 6 Este 0 -- -- 40
2017-09-20 10:00:00 8.9 2 Este 7 Este 0 -- -- 59
2017-09-20 09:00:00 3.9 4 Este 6 Nordeste 0 -- -- 77
2017-09-20 08:00:00 1.5 4 Este 6 Nordeste 0 -- -- 86
2017-09-20 07:00:00 2 3 Este 5 Este 0 -- -- 82
2017-09-20 06:00:00 2 2 Nordeste 7 Nordeste 0 -- -- 82
2017-09-20 05:00:00 2.6 2 Este 5 Este 0 -- -- 80
2017-09-20 04:00:00 3.6 3 Nordeste 5 Este 0 -- -- 75
2017-09-20 03:00:00 4 0 Calma 8 Nordeste 0 -- -- 74
2017-09-20 02:00:00 4.2 4 Nordeste 7 Nordeste 0 -- -- 72
2017-09-20 01:00:00 5.9 0 Calma 5 Nordeste 0 -- -- 66
2017-09-20 00:00:00 7.7 3 Nordeste 8 Nordeste 0 -- -- 58
2017-09-19 23:00:00 11.3 2 Norte 16 Oeste 0 -- -- 47
2017-09-19 22:00:00 14.1 14 Oeste 17 Noroeste 0 -- -- 39
2017-09-19 21:00:00 16 15 Noroeste 22 Noroeste 0 -- -- 32
2017-09-19 20:00:00 18.6 16 Oeste 24 Oeste 0 -- -- 26
2017-09-19 19:00:00 21.1 17 Oeste 29 Oeste 0 -- -- 22
2017-09-19 18:00:00 21.7 17 Oeste 28 Oeste 0 -- -- 22
2017-09-19 17:00:00 21.4 19 Oeste 32 Noroeste 0 -- -- 25
2017-09-19 16:00:00 20.7 15 Noroeste 32 Oeste 0 -- -- 29
2017-09-19 15:00:00 19.5 18 Oeste 36 Oeste 0 -- -- 33
2017-09-19 14:00:00 18.6 19 Oeste 32 Oeste 0 -- -- 39
2017-09-19 13:00:00 17 18 Oeste 31 Oeste 0 -- -- 44
2017-09-19 12:00:00 15.9 14 Oeste 24 Oeste 0 -- -- 54
2017-09-19 11:00:00 13.6 7 Oeste 12 Sudoeste 0 -- -- 67
2017-09-19 10:00:00 8.6 3 Este 6 Este 0 -- -- 77
2017-09-19 09:00:00 4.2 3 Este 5 Este 0 -- -- 92
2017-09-19 08:00:00 2.3 0 Calma 4 Este 0 -- -- 94
2017-09-19 07:00:00 2.8 0 Calma 3 Nordeste 0 -- -- 93
2017-09-19 06:00:00 3.3 0 Calma 4 Este 0 -- -- 93
2017-09-19 05:00:00 4.2 2 Nordeste 4 Nordeste 0 -- -- 92
2017-09-19 04:00:00 4.3 4 Este 5 Este 0 -- -- 90
2017-09-19 03:00:00 5.4 3 Sudeste 5 Sudeste 0 -- -- 85
2017-09-19 02:00:00 6.8 2 Sudeste 9 Oeste 0 -- -- 81
2017-09-19 01:00:00 6.6 0 Calma 5 Sudeste 0 -- -- 82
2017-09-19 00:00:00 7.7 2 Sudeste 6 Sudeste 0 -- -- 78
2017-09-18 23:00:00 9.8 3 Sudeste 9 Oeste 0 -- -- 70
2017-09-18 22:00:00 13.9 8 Oeste 12 Oeste 0 -- -- 57
2017-09-18 21:00:00 15.6 9 Noroeste 15 Oeste 0 -- -- 52
2017-09-18 20:00:00 17.1 12 Noroeste 24 Oeste 0 -- -- 43
2017-09-18 19:00:00 19.2 21 Oeste 37 Oeste 0 -- -- 37
2017-09-18 18:00:00 19.5 24 Oeste 37 Oeste 0 -- -- 39
2017-09-18 17:00:00 18.3 21 Noroeste 30 Oeste 0 -- -- 43
2017-09-18 16:00:00 17.1 19 Oeste 32 Noroeste 0 -- -- 48
2017-09-18 15:00:00 17.1 17 Oeste 35 Noroeste 0 -- -- 51
2017-09-18 14:00:00 15.9 22 Oeste 34 Oeste 0 -- -- 54
2017-09-18 13:00:00 14.4 21 Oeste 32 Noroeste 0 -- -- 60
2017-09-18 12:00:00 13.3 21 Oeste 32 Noroeste 0 -- -- 62
2017-09-18 11:00:00 12.6 21 Oeste 29 Oeste 0 -- -- 63
2017-09-18 10:00:00 11.3 21 Oeste 27 Oeste 0 -- -- 66
2017-09-18 09:00:00 9.6 15 Oeste 26 Oeste 0 -- -- 68
2017-09-18 08:00:00 8.6 13 Oeste 18 Oeste 0 -- -- 68
2017-09-18 07:00:00 6.4 2 Sudeste 4 Sudeste 0 -- -- 75
2017-09-18 06:00:00 5.1 0 Calma 5 Este 0 -- -- 73
2017-09-18 05:00:00 5.1 0 Calma 2 Sudeste 0 -- -- 72
2017-09-18 04:00:00 5 0 Calma 4 Este 0 -- -- 70
2017-09-18 03:00:00 5.1 2 Nordeste 4 Nordeste 0 -- -- 69
2017-09-18 02:00:00 4.7 0 Calma 4 Sudeste 0 -- -- 71
2017-09-18 01:00:00 5.7 2 Sudeste 4 Sudeste 0 -- -- 70
2017-09-18 00:00:00 9.3 0 Calma 3 Este 0 -- -- 53
2017-09-17 23:00:00 11.8 0 Calma 5 Sudeste 0 -- -- 43
2017-09-17 22:00:00 13.8 3 Norte 14 Noroeste 0 -- -- 37
2017-09-17 21:00:00 14.7 10 Noroeste 16 Noroeste 0 -- -- 37
2017-09-17 20:00:00 16.9 15 Noroeste 31 Oeste 0 -- -- 31
2017-09-17 19:00:00 18.9 21 Oeste 33 Oeste 0 -- -- 28
2017-09-17 18:00:00 18.8 19 Noroeste 32 Oeste 0 -- -- 30
2017-09-17 17:00:00 18.5 22 Noroeste 34 Noroeste 0 -- -- 30
2017-09-17 16:00:00 18.5 18 Noroeste 40 Oeste 0 -- -- 33
2017-09-17 15:00:00 17.9 19 Oeste 39 Oeste 0 -- -- 37
2017-09-17 14:00:00 17.3 13 Oeste 33 Oeste 0 -- -- 39
2017-09-17 13:00:00 15.1 15 Noroeste 30 Oeste 0 -- -- 42
2017-09-17 12:00:00 14.2 12 Oeste 20 Oeste 0 -- -- 44
2017-09-17 11:00:00 13.3 5 Sudoeste 14 Oeste 0 -- -- 44
2017-09-17 10:00:00 7.7 3 Este 8 Este 0 -- -- 64
2017-09-17 09:00:00 2.1 3 Este 6 Nordeste 0 -- -- 85
2017-09-17 08:00:00 -0.3 3 Este 8 Este 0 -- -- 90
2017-09-17 07:00:00 -0.5 0 Calma 5 Nordeste 0 -- -- 89
2017-09-17 06:00:00 0.6 2 Nordeste 4 Nordeste 0 -- -- 86
2017-09-17 05:00:00 1.2 0 Calma 4 Nordeste 0 -- -- 84
2017-09-17 04:00:00 1.6 2 Este 7 Nordeste 0 -- -- 83
2017-09-17 03:00:00 1.5 3 Este 5 Este 0 -- -- 83
2017-09-17 02:00:00 2.6 3 Nordeste 8 Nordeste 0 -- -- 77
2017-09-17 01:00:00 3.2 4 Nordeste 6 Nordeste 0 -- -- 75
2017-09-17 00:00:00 4.6 0 Calma 4 Este 0 -- -- 70
2017-09-16 23:00:00 6.5 2 Este 5 Oeste 0 -- -- 63
2017-09-16 22:00:00 8.8 5 Oeste 10 Oeste 0 -- -- 52
2017-09-16 21:00:00 11.1 6 Oeste 19 Oeste 0 -- -- 45
2017-09-16 20:00:00 14.1 14 Oeste 30 Oeste 0 -- -- 38
2017-09-16 19:00:00 15.6 18 Oeste 32 Oeste 0 -- -- 35
2017-09-16 18:00:00 15.1 20 Noroeste 32 Oeste 0 -- -- 35
2017-09-16 17:00:00 14.6 19 Noroeste 35 Oeste 0 -- -- 37
2017-09-16 16:00:00 15.2 17 Noroeste 41 Oeste 0 -- -- 36
2017-09-16 15:00:00 14.5 23 Noroeste 37 Oeste 0 -- -- 39
2017-09-16 14:00:00 14.3 20 Oeste 60 Noroeste 0 -- -- 40
2017-09-16 13:00:00 13.4 20 Oeste 31 Oeste 0 -- -- 41
2017-09-16 12:00:00 12.2 13 Oeste 24 Oeste 0 -- -- 52
2017-09-16 11:00:00 10.8 5 Sudoeste 14 Sudoeste 0 -- -- 60
2017-09-16 10:00:00 6.2 2 Sudeste 6 Este 0 -- -- 73
2017-09-16 09:00:00 2 4 Este 5 Este 0 -- -- 89
2017-09-16 08:00:00 -0.5 0 Calma 3 Nordeste 0 -- -- 93
2017-09-16 07:00:00 -0.1 3 Nordeste 4 Nordeste 0 -- -- 92
2017-09-16 06:00:00 0.2 3 Este 7 Nordeste 0 -- -- 92
2017-09-16 05:00:00 0.7 0 Calma 0 Calma 0 -- -- 91
2017-09-16 04:00:00 1.1 0 Calma 0 Calma 0 -- -- 90
2017-09-16 03:00:00 1.7 0 Calma 0 Calma 0 -- -- 88
2017-09-16 02:00:00 2.9 0 Calma 0 Calma 0 -- -- 86
2017-09-16 01:00:00 5.1 0 Calma 0 Calma 0 -- -- 81
2017-09-16 00:00:00 6.2 0 Calma 0 Calma 0 -- -- 75
2017-09-15 23:00:00 7.7 0 Calma 8 Norte 0 -- -- 70
2017-09-15 22:00:00 9.6 5 Norte 13 Norte 0 -- -- 62
2017-09-15 21:00:00 11.4 6 Norte 18 Nordeste 0 -- -- 56
2017-09-15 20:00:00 13.9 13 Nordeste 31 Norte 0 -- -- 49
2017-09-15 19:00:00 16.9 13 Norte 25 Nordeste 0 -- -- 37
2017-09-15 18:00:00 16.3 16 Norte 28 Norte 0 -- -- 38
2017-09-15 17:00:00 17.1 6 Norte 18 Noroeste 0 -- -- 35
2017-09-15 16:00:00 17.4 4 Oeste 16 Sudoeste 0 -- -- 35
2017-09-15 15:00:00 16.6 6 Sur 15 Sur 0 -- -- 39
2017-09-15 14:00:00 16.4 7 Sur 18 Este 0 -- -- 41
2017-09-15 13:00:00 17.7 8 Este 17 Sudeste 0 -- -- 39
2017-09-15 12:00:00 15 5 Sur 17 Noroeste 0 -- -- 45
2017-09-15 11:00:00 13.3 4 Nordeste 20 Nordeste 0 -- -- 49
2017-09-15 10:00:00 11.3 3 Sur 10 Oeste 0 -- -- 64
2017-09-15 09:00:00 9.9 2 Este 4 Este 0 -- -- 73
2017-09-15 08:00:00 9.2 2 Sudeste 3 Sudeste 0 -- -- 78
2017-09-15 07:00:00 9.1 0 Calma 6 Sudeste 0 -- -- 78
2017-09-15 06:00:00 9.2 0 Calma 10 Sudeste 0 -- -- 73
2017-09-15 05:00:00 9.7 5 Sudeste 15 Sudeste 0 -- -- 73
2017-09-15 04:00:00 10.2 11 Este 22 Este 0 -- -- 72
2017-09-15 03:00:00 10.6 15 Este 27 Este 0 -- -- 71
2017-09-15 02:00:00 10.8 14 Este 25 Sudeste 0 -- -- 71
2017-09-15 01:00:00 10.5 10 Este 20 Sudeste 0 -- -- 70
2017-09-15 00:00:00 11.2 13 Este 24 Este 0 -- -- 66
2017-09-14 23:00:00 11.7 13 Este 23 Este 0 -- -- 67
2017-09-14 22:00:00 12.5 15 Este 25 Este 0 -- -- 64
2017-09-14 21:00:00 14.2 12 Sudeste 22 Este 0 -- -- 62
2017-09-14 20:00:00 17.2 14 Este 24 Este 0 -- -- 54
2017-09-14 19:00:00 21 18 Noroeste 30 Noroeste 0 -- -- 42
2017-09-14 18:00:00 22.5 21 Noroeste 33 Noroeste 0 -- -- 41
2017-09-14 17:00:00 23.4 22 Oeste 40 Oeste 0 -- -- 39
2017-09-14 16:00:00 23.1 22 Noroeste 47 Oeste 0 -- -- 43
2017-09-14 15:00:00 23.2 17 Oeste 35 Oeste 0 -- -- 42
2017-09-14 14:00:00 21.6 17 Oeste 34 Oeste 0 -- -- 43
2017-09-14 13:00:00 20.6 22 Oeste 38 Oeste 0 -- -- 48
2017-09-14 12:00:00 19.1 21 Oeste 35 Oeste 0 -- -- 54
2017-09-14 11:00:00 17.3 16 Oeste 29 Oeste 0 -- -- 65
2017-09-14 10:00:00 15.5 19 Oeste 30 Oeste 0 -- -- 66
2017-09-14 09:00:00 10.5 0 Calma 4 Este 0 -- -- 77
2017-09-14 08:00:00 8.5 2 Sudeste 10 Oeste 0 -- -- 82
2017-09-14 07:00:00 11.4 9 Oeste 14 Oeste 0 -- -- 68
2017-09-14 06:00:00 7.9 0 Calma 4 Sudeste 0 -- -- 86
2017-09-14 05:00:00 8.2 0 Calma 3 Sudeste 0 -- -- 85
2017-09-14 04:00:00 9 2 Sur 4 Sur 0 -- -- 83
2017-09-14 03:00:00 10.3 0 Calma 3 Sudeste 0 -- -- 78
2017-09-14 02:00:00 11.5 2 Sudeste 4 Sudeste 0 -- -- 74
2017-09-14 01:00:00 12.6 2 Sudeste 5 Sudeste 0 -- -- 69
2017-09-14 00:00:00 13.9 2 Sudeste 6 Este 0 -- -- 65
2017-09-13 23:00:00 16.1 0 Calma 7 Sudeste 0 -- -- 58
2017-09-13 22:00:00 19.2 5 Sur 10 Sur 0 -- -- 48
2017-09-13 21:00:00 21.8 8 Noroeste 12 Noroeste 0 -- -- 38
2017-09-13 20:00:00 26 10 Noroeste 23 Oeste 0 -- -- 31
2017-09-13 19:00:00 27.5 16 Oeste 26 Oeste 0 -- -- 28
2017-09-13 18:00:00 28 19 Noroeste 33 Oeste 0 -- -- 27
2017-09-13 17:00:00 27.6 19 Oeste 42 Oeste 0 -- -- 27
2017-09-13 16:00:00 27.3 22 Oeste 44 Oeste 0 -- -- 29
2017-09-13 15:00:00 26.6 21 Oeste 39 Oeste 0 -- -- 30
2017-09-13 14:00:00 25.8 15 Sudoeste 37 Oeste 0 -- -- 33
2017-09-13 13:00:00 24.7 4 Oeste 22 Sudoeste 0 -- -- 36
2017-09-13 12:00:00 22.8 6 Oeste 12 Oeste 0 -- -- 40
2017-09-13 11:00:00 19.3 2 Sudeste 7 Este 0 -- -- 49
2017-09-13 10:00:00 13.7 4 Este 8 Este 0 -- -- 66
2017-09-13 09:00:00 9.3 4 Nordeste 5 Este 0 -- -- 84
2017-09-13 08:00:00 6.6 4 Este 6 Este 0 -- -- 91
2017-09-13 07:00:00 6.8 0 Calma 7 Nordeste 0 -- -- 90
2017-09-13 06:00:00 7.2 3 Este 6 Nordeste 0 -- -- 88
2017-09-13 05:00:00 7.7 3 Nordeste 6 Este 0 -- -- 87
2017-09-13 04:00:00 8.5 0 Calma 7 Este 0 -- -- 85
2017-09-13 03:00:00 8.9 3 Este 5 Sudeste 0 -- -- 83
2017-09-13 02:00:00 9.4 0 Calma 5 Sudeste 0 -- -- 80
2017-09-13 01:00:00 10.6 2 Sudeste 6 Sudeste 0 -- -- 76
2017-09-13 00:00:00 11.5 5 Este 8 Este 0 -- -- 73
2017-09-12 23:00:00 15.4 4 Oeste 9 Sudoeste 0 -- -- 57
2017-09-12 22:00:00 16.1 9 Oeste 13 Oeste 0 -- -- 53
2017-09-12 21:00:00 18.4 11 Oeste 28 Oeste 0 -- -- 47
2017-09-12 20:00:00 21 18 Oeste 33 Oeste 0 -- -- 40
2017-09-12 19:00:00 22.1 18 Noroeste 42 Oeste 0 -- -- 36
2017-09-12 18:00:00 22.5 19 Oeste 40 Oeste 0 -- -- 35
2017-09-12 17:00:00 22.1 21 Oeste 42 Oeste 0 -- -- 35
2017-09-12 16:00:00 20.9 25 Oeste 41 Oeste 0 -- -- 39
2017-09-12 15:00:00 19.9 19 Noroeste 33 Noroeste 0 -- -- 40
2017-09-12 14:00:00 19.1 17 Oeste 35 Oeste 0 -- -- 46
2017-09-12 13:00:00 17.5 15 Noroeste 31 Oeste 0 -- -- 48
2017-09-12 12:00:00 16.4 15 Noroeste 28 Oeste 0 -- -- 55
2017-09-12 11:00:00 15.2 16 Noroeste 24 Noroeste 0 -- -- 64
2017-09-12 10:00:00 13.3 16 Oeste 20 Oeste 0 -- -- 78
2017-09-12 09:00:00 10.1 0 Calma 10 Oeste 0 -- -- 90
2017-09-12 08:00:00 9.7 9 Oeste 15 Oeste 0 -- -- 91
2017-09-12 07:00:00 10 4 Noroeste 21 Oeste 0 -- -- 88
2017-09-12 06:00:00 10.5 15 Oeste 22 Oeste 0 -- -- 87
2017-09-12 05:00:00 11.2 17 Oeste 21 Oeste 0 -- -- 84
2017-09-12 04:00:00 11.6 11 Oeste 22 Oeste 0 -- -- 80
2017-09-12 03:00:00 13.1 15 Oeste 22 Noroeste 0 -- -- 74
2017-09-12 02:00:00 14.3 18 Oeste 26 Oeste 0 -- -- 66
2017-09-12 01:00:00 15.9 19 Oeste 30 Oeste 0 -- -- 58
2017-09-12 00:00:00 17.1 19 Oeste 26 Oeste 0 -- -- 51
2017-09-11 23:00:00 17.9 18 Oeste 24 Noroeste 0 -- -- 44
2017-09-11 22:00:00 18.2 9 Noroeste 20 Oeste 0 -- -- 42
2017-09-11 21:00:00 20.9 14 Oeste 36 Oeste 0 -- -- 36
2017-09-11 20:00:00 23.2 25 Oeste 47 Oeste 0 -- -- 38
2017-09-11 19:00:00 24.6 33 Oeste 46 Oeste 0 -- -- 36
2017-09-11 18:00:00 25 32 Oeste 47 Oeste 0 -- -- 37
2017-09-11 17:00:00 23.8 33 Oeste 48 Noroeste 0 -- -- 40
2017-09-11 16:00:00 23.9 28 Oeste 44 Oeste 0 -- -- 39
2017-09-11 15:00:00 22.3 30 Oeste 48 Oeste 0 -- -- 47
2017-09-11 14:00:00 21.6 29 Oeste 50 Oeste 0 -- -- 48
2017-09-11 13:00:00 19.7 30 Oeste 43 Oeste 0 -- -- 57
2017-09-11 12:00:00 18.2 26 Oeste 36 Oeste 0 -- -- 63
2017-09-11 11:00:00 17 26 Oeste 39 Oeste 0 -- -- 69
2017-09-11 10:00:00 15.4 20 Oeste 31 Oeste 0 -- -- 71
2017-09-11 09:00:00 13.3 18 Oeste 31 Oeste 0 -- -- 73
2017-09-11 08:00:00 12.6 18 Oeste 25 Oeste 0 -- -- 72
2017-09-11 07:00:00 12.2 8 Oeste 22 Oeste 0 -- -- 65
2017-09-11 06:00:00 12.6 6 Oeste 18 Oeste 0 -- -- 64
2017-09-11 05:00:00 14.1 17 Oeste 24 Oeste 0 -- -- 57
2017-09-11 04:00:00 14.9 15 Oeste 22 Oeste 0 -- -- 48
2017-09-11 03:00:00 15.6 17 Oeste 27 Oeste 0 -- -- 43
2017-09-11 02:00:00 15.6 19 Oeste 30 Oeste 0 -- -- 42
2017-09-11 01:00:00 15.5 18 Oeste 28 Oeste 0 -- -- 42
2017-09-11 00:00:00 15.4 15 Oeste 21 Oeste 0 -- -- 42
2017-09-10 23:00:00 15.5 9 Oeste 15 Sudoeste 0 -- -- 42
2017-09-10 22:00:00 16.1 10 Oeste 21 Oeste 0 -- -- 40
2017-09-10 21:00:00 17.8 15 Noroeste 33 Oeste 0 -- -- 37
2017-09-10 20:00:00 19 24 Oeste 39 Oeste 0 -- -- 32
2017-09-10 19:00:00 19.5 24 Oeste 41 Noroeste 0 -- -- 32
2017-09-10 18:00:00 20.1 23 Oeste 42 Oeste 0 -- -- 30
2017-09-10 17:00:00 19.3 23 Noroeste 44 Noroeste 0 -- -- 34
2017-09-10 16:00:00 18.5 29 Oeste 45 Oeste 0 -- -- 36
2017-09-10 15:00:00 17.6 18 Oeste 37 Oeste 0 -- -- 40
2017-09-10 14:00:00 16.5 22 Noroeste 39 Oeste 0 -- -- 46
2017-09-10 13:00:00 14.7 21 Oeste 37 Oeste 0 -- -- 52
2017-09-10 12:00:00 14.2 21 Noroeste 36 Oeste 0 -- -- 56
2017-09-10 11:00:00 13.1 21 Noroeste 32 Noroeste 0 -- -- 59
2017-09-10 10:00:00 10.8 15 Oeste 27 Oeste 0 -- -- 72
2017-09-10 09:00:00 8.7 17 Oeste 25 Oeste 0 -- -- 81
2017-09-10 08:00:00 7.6 12 Oeste 26 Oeste 0 -- -- 84
2017-09-10 07:00:00 7.9 20 Oeste 29 Oeste 0 -- -- 82
2017-09-10 06:00:00 7.7 13 Oeste 25 Noroeste 0 -- -- 82
2017-09-10 05:00:00 9.9 18 Noroeste 34 Noroeste 0 -- -- 69
2017-09-10 04:00:00 9.3 16 Noroeste 28 Noroeste 0 -- -- 70
2017-09-10 03:00:00 8 15 Oeste 20 Oeste 0 -- -- 82
2017-09-10 02:00:00 8.7 11 Oeste 16 Oeste 0 -- -- 80
2017-09-10 01:00:00 9.1 9 Oeste 13 Oeste 0 -- -- 79
2017-09-10 00:00:00 9.8 10 Noroeste 15 Noroeste 0 -- -- 72
2017-09-09 23:00:00 10.1 6 Noroeste 11 Norte 0 -- -- 71
2017-09-09 22:00:00 11.4 9 Norte 19 Norte 0 -- -- 66
2017-09-09 21:00:00 11.9 10 Norte 28 Nordeste 0 -- -- 73
2017-09-09 20:00:00 12.3 26 Oeste 65 Noroeste 0.8 -- -- 57
2017-09-09 19:00:00 17.8 10 Norte 30 Norte 0 -- -- 44
2017-09-09 18:00:00 18.6 20 Norte 37 Norte 0 -- -- 42
2017-09-09 17:00:00 17.2 23 Norte 44 Oeste 0 -- -- 48
2017-09-09 16:00:00 18.5 25 Noroeste 45 Noroeste 0 -- -- 42
2017-09-09 15:00:00 19.3 33 Noroeste 50 Oeste 0 -- -- 40
2017-09-09 14:00:00 17.5 25 Noroeste 45 Oeste 0 -- -- 56
2017-09-09 13:00:00 16.8 31 Oeste 42 Oeste 0 -- -- 60
2017-09-09 12:00:00 15.8 27 Oeste 39 Oeste 0 -- -- 64
2017-09-09 11:00:00 15.6 27 Oeste 40 Oeste 0 -- -- 65
2017-09-09 10:00:00 15 26 Oeste 40 Oeste 0 -- -- 65
2017-09-09 09:00:00 14.1 17 Oeste 25 Oeste 0 -- -- 66
2017-09-09 08:00:00 14 22 Oeste 33 Oeste 0 -- -- 59
2017-09-09 07:00:00 14.2 19 Oeste 27 Oeste 0 -- -- 57
2017-09-09 06:00:00 14.5 17 Oeste 25 Oeste 0 -- -- 50
2017-09-09 05:00:00 15.2 12 Oeste 30 Oeste 0 -- -- 42
2017-09-09 04:00:00 15.3 12 Oeste 20 Oeste 0 -- -- 43
2017-09-09 03:00:00 14.2 6 Oeste 9 Sudoeste 0 -- -- 42
2017-09-09 02:00:00 9.3 2 Sudeste 5 Sudeste 0 -- -- 66
2017-09-09 01:00:00 10.4 0 Calma 6 Sudeste 0 -- -- 61
2017-09-09 00:00:00 12.3 4 Sudeste 5 Sudeste 0 -- -- 53
2017-09-08 23:00:00 17.2 0 Calma 12 Sudoeste 0 -- -- 31
2017-09-08 22:00:00 19 5 Oeste 17 Noroeste 0 -- -- 25
2017-09-08 21:00:00 21.2 14 Oeste 21 Oeste 0 -- -- 24
2017-09-08 20:00:00 24.7 18 Oeste 38 Oeste 0 -- -- 21
2017-09-08 19:00:00 26.4 25 Oeste 41 Oeste 0 -- -- 19
2017-09-08 18:00:00 26.9 25 Oeste 44 Oeste 0 -- -- 19
2017-09-08 17:00:00 26.8 27 Oeste 43 Oeste 0 -- -- 19
2017-09-08 16:00:00 26.7 24 Oeste 44 Oeste 0 -- -- 21
2017-09-08 15:00:00 26.4 19 Oeste 36 Oeste 0 -- -- 23
2017-09-08 14:00:00 25.4 17 Oeste 28 Oeste 0 -- -- 27
2017-09-08 13:00:00 24.2 8 Oeste 21 Oeste 0 -- -- 27
2017-09-08 12:00:00 23 3 Oeste 8 Este 0 -- -- 34
2017-09-08 11:00:00 17.6 4 Este 8 Nordeste 0 -- -- 50
2017-09-08 10:00:00 11.5 3 Este 7 Este 0 -- -- 68
2017-09-08 09:00:00 7.6 3 Este 5 Este 0 -- -- 83
2017-09-08 08:00:00 5.4 3 Este 9 Este 0 -- -- 88
2017-09-08 07:00:00 6.1 0 Calma 6 Nordeste 0 -- -- 86
2017-09-08 06:00:00 6.5 5 Nordeste 8 Nordeste 0 -- -- 85
2017-09-08 05:00:00 7.2 3 Este 8 Este 0 -- -- 83
2017-09-08 04:00:00 7.4 6 Nordeste 8 Nordeste 0 -- -- 80
2017-09-08 03:00:00 7.2 3 Este 6 Este 0 -- -- 81
2017-09-08 02:00:00 8.2 4 Este 5 Este 0 -- -- 77
2017-09-08 01:00:00 9.4 3 Este 6 Este 0 -- -- 71
2017-09-08 00:00:00 11.4 3 Este 8 Este 0 -- -- 61
2017-09-07 23:00:00 14.4 4 Noroeste 8 Noroeste 0 -- -- 47
2017-09-07 22:00:00 16.7 6 Oeste 14 Noroeste 0 -- -- 38
2017-09-07 21:00:00 19.6 10 Noroeste 22 Noroeste 0 -- -- 30
2017-09-07 20:00:00 23.3 14 Noroeste 32 Oeste 0 -- -- 24
2017-09-07 19:00:00 25.1 21 Oeste 33 Oeste 0 -- -- 24
2017-09-07 18:00:00 25.7 18 Oeste 30 Oeste 0 -- -- 24
2017-09-07 17:00:00 25.9 14 Oeste 26 Oeste 0 -- -- 26
2017-09-07 16:00:00 25.2 12 Oeste 25 Oeste 0 -- -- 28
2017-09-07 15:00:00 24.6 8 Oeste 22 Oeste 0 -- -- 29
2017-09-07 14:00:00 22.8 11 Oeste 20 Oeste 0 -- -- 29
2017-09-07 13:00:00 20.5 9 Oeste 15 Oeste 0 -- -- 42
2017-09-07 12:00:00 18.2 8 Oeste 15 Oeste 0 -- -- 54
2017-09-07 11:00:00 15.4 10 Oeste 14 Oeste 0 -- -- 67
2017-09-07 10:00:00 11.7 4 Sudeste 6 Sudeste 0 -- -- 72
2017-09-07 09:00:00 7.7 2 Este 5 Este 0 -- -- 90
2017-09-07 08:00:00 5.3 0 Calma 4 Este 0 -- -- 93
2017-09-07 07:00:00 5.7 2 Este 6 Este 0 -- -- 94
2017-09-07 06:00:00 6.6 4 Este 8 Este 0 -- -- 93
2017-09-07 05:00:00 8 3 Este 6 Este 0 -- -- 92
2017-09-07 04:00:00 9.1 0 Calma 6 Este 0 -- -- 92
2017-09-07 03:00:00 10.2 4 Sudeste 6 Sudeste 0 -- -- 88
2017-09-07 02:00:00 12.1 0 Calma 7 Nordeste 0 -- -- 80
2017-09-07 01:00:00 13.7 4 Nordeste 13 Este 0 -- -- 74
2017-09-07 00:00:00 14.8 4 Este 12 Sudeste 0 -- -- 72
2017-09-06 23:00:00 16.4 6 Sudeste 14 Sudeste 0 -- -- 68
2017-09-06 22:00:00 17.8 9 Este 18 Este 0 -- -- 65
2017-09-06 21:00:00 19.7 12 Este 26 Este 0 -- -- 61
2017-09-06 20:00:00 23.3 17 Este 30 Este 0 -- -- 50
2017-09-06 19:00:00 24.4 19 Este 32 Este 0 -- -- 47
2017-09-06 18:00:00 27.8 13 Este 32 Sudeste 0 -- -- 38
2017-09-06 17:00:00 28.8 8 Sur 19 Sudeste 0 -- -- 36
2017-09-06 16:00:00 28.4 10 Este 23 Este 0 -- -- 37
2017-09-06 15:00:00 27.1 9 Este 25 Este 0 -- -- 40
2017-09-06 14:00:00 26 8 Este 24 Este 0 -- -- 42
2017-09-06 13:00:00 24.8 16 Este 28 Sudeste 0 -- -- 44
2017-09-06 12:00:00 23.7 12 Este 24 Este 0 -- -- 48
2017-09-06 11:00:00 21 11 Este 19 Este 0 -- -- 57
2017-09-06 10:00:00 17.8 14 Este 18 Este 0 -- -- 69
2017-09-06 09:00:00 15.2 6 Nordeste 10 Este 0 -- -- 91
2017-09-06 08:00:00 13.2 3 Este 7 Sudeste 0 -- -- 95
2017-09-06 07:00:00 13.2 2 Este 4 Sudeste 0 -- -- 93
2017-09-06 06:00:00 14.2 3 Este 9 Este 0 -- -- 92
2017-09-06 05:00:00 14.5 5 Este 12 Nordeste 0 -- -- 90
2017-09-06 04:00:00 15.9 9 Este 17 Este 0 -- -- 86
2017-09-06 03:00:00 17 9 Este 17 Este 0 -- -- 82
2017-09-06 02:00:00 17.6 8 Este 13 Este 0 -- -- 78
2017-09-06 01:00:00 18.6 5 Este 12 Este 0 -- -- 73
2017-09-06 00:00:00 19.8 3 Este 12 Este 0 -- -- 68
2017-09-05 23:00:00 20.8 4 Este 13 Este 0 -- -- 65
2017-09-05 22:00:00 21.8 5 Nordeste 18 Este 0 -- -- 57
2017-09-05 21:00:00 23.4 7 Oeste 13 Oeste 0 -- -- 43
2017-09-05 20:00:00 28.1 10 Noroeste 22 Oeste 0 -- -- 33
2017-09-05 19:00:00 29.2 11 Noroeste 25 Noroeste 0 -- -- 31
2017-09-05 18:00:00 29.1 12 Oeste 26 Noroeste 0 -- -- 31
2017-09-05 17:00:00 29.2 13 Noroeste 26 Noroeste 0 -- -- 31
2017-09-05 16:00:00 28.6 9 Noroeste 26 Oeste 0 -- -- 33
2017-09-05 15:00:00 28 10 Oeste 22 Oeste 0 -- -- 31
2017-09-05 14:00:00 27.5 5 Sur 14 Sudoeste 0 -- -- 35
2017-09-05 13:00:00 26.1 6 Oeste 12 Sudoeste 0 -- -- 39
2017-09-05 12:00:00 24 5 Sudoeste 12 Sudoeste 0 -- -- 47
2017-09-05 11:00:00 21.3 7 Este 15 Sudeste 0 -- -- 57
2017-09-05 10:00:00 17.8 7 Este 10 Este 0 -- -- 70
2017-09-05 09:00:00 13.6 3 Este 8 Este 0 -- -- 86
2017-09-05 08:00:00 11.1 7 Este 10 Este 0 -- -- 93
2017-09-05 07:00:00 10.7 5 Nordeste 8 Este 0 -- -- 94
2017-09-05 06:00:00 10.6 6 Este 9 Este 0 -- -- 93
2017-09-05 05:00:00 11.3 4 Nordeste 8 Este 0 -- -- 92
2017-09-05 04:00:00 11.6 5 Este 8 Este 0 -- -- 91
2017-09-05 03:00:00 12.8 3 Este 5 Nordeste 0 -- -- 87
2017-09-05 02:00:00 14 3 Este 7 Este 0 -- -- 81
2017-09-05 01:00:00 15.1 5 Este 9 Este 0 -- -- 76
2017-09-05 00:00:00 15.2 4 Este 9 Este 0 -- -- 76
2017-09-04 23:00:00 15.1 7 Nordeste 15 Este 0 -- -- 78
2017-09-04 22:00:00 17.4 2 Nordeste 6 Nordeste 0 -- -- 70
2017-09-04 21:00:00 19.8 4 Nordeste 7 Nordeste 0 -- -- 58
2017-09-04 20:00:00 22.7 2 Noroeste 9 Este 0 -- -- 47
2017-09-04 19:00:00 23.7 6 Este 14 Nordeste 0 -- -- 44
2017-09-04 18:00:00 26.9 5 Sudeste 18 Sudoeste 0 -- -- 37
2017-09-04 17:00:00 26.2 5 Norte 21 Este 0 -- -- 39
2017-09-04 16:00:00 25.5 5 Sudoeste 24 Sudoeste 0 -- -- 42
2017-09-04 15:00:00 23.6 6 Noroeste 22 Oeste 0 -- -- 47
2017-09-04 14:00:00 21.4 9 Oeste 24 Sudoeste 0 -- -- 53
2017-09-04 13:00:00 19.8 11 Oeste 23 Oeste 0 -- -- 60
2017-09-04 12:00:00 16.8 9 Noroeste 22 Oeste 0 -- -- 71
2017-09-04 11:00:00 16.2 14 Oeste 23 Oeste 0 -- -- 74
2017-09-04 10:00:00 15.9 15 Noroeste 27 Noroeste 0 -- -- 75
2017-09-04 09:00:00 16 13 Oeste 20 Oeste 0 -- -- 72
2017-09-04 08:00:00 14.7 8 Oeste 12 Oeste 0 -- -- 68
2017-09-04 07:00:00 15.8 8 Oeste 18 Oeste 0 -- -- 60
2017-09-04 06:00:00 15.9 12 Oeste 17 Oeste 0 -- -- 56
2017-09-04 05:00:00 16.1 13 Oeste 24 Sudoeste 0 -- -- 52
2017-09-04 04:00:00 16.6 17 Oeste 24 Sudoeste 0 -- -- 48
2017-09-04 03:00:00 15.8 12 Oeste 15 Oeste 0 -- -- 54
2017-09-04 02:00:00 12.8 0 Calma 5 Sudeste 0 -- -- 78
2017-09-04 01:00:00 13.6 0 Calma 5 Sudeste 0 -- -- 73
2017-09-04 00:00:00 15.1 3 Este 5 Sudeste 0 -- -- 67
2017-09-03 23:00:00 17.5 2 Este 8 Oeste 0 -- -- 57
2017-09-03 22:00:00 19.1 5 Nordeste 6 Nordeste 0 -- -- 49
2017-09-03 21:00:00 21.2 6 Nordeste 12 Nordeste 0 -- -- 41
2017-09-03 20:00:00 25 7 Noroeste 25 Noroeste 0 -- -- 28
2017-09-03 19:00:00 26.2 14 Noroeste 26 Oeste 0 -- -- 25
2017-09-03 18:00:00 25.5 21 Oeste 33 Oeste 0 -- -- 27
2017-09-03 17:00:00 25.2 23 Oeste 37 Oeste 0 -- -- 30
2017-09-03 16:00:00 26 24 Oeste 40 Oeste 0 -- -- 26
2017-09-03 15:00:00 25.2 27 Oeste 39 Noroeste 0 -- -- 23
2017-09-03 14:00:00 24 26 Oeste 41 Oeste 0 -- -- 28
2017-09-03 13:00:00 23.3 21 Oeste 33 Oeste 0 -- -- 31
2017-09-03 12:00:00 22 18 Oeste 26 Oeste 0 -- -- 29
2017-09-03 11:00:00 19.6 2 Este 6 Sudeste 0 -- -- 47
2017-09-03 10:00:00 13.7 3 Este 6 Nordeste 0 -- -- 71
2017-09-03 09:00:00 11.4 0 Calma 6 Este 0 -- -- 78
2017-09-03 08:00:00 10 2 Este 5 Este 0 -- -- 82
2017-09-03 07:00:00 9.6 2 Este 5 Este 0 -- -- 82
2017-09-03 06:00:00 9.3 2 Este 4 Nordeste 0 -- -- 84
2017-09-03 05:00:00 9.1 3 Este 6 Este 0 -- -- 82
2017-09-03 04:00:00 9.1 3 Nordeste 5 Este 0 -- -- 83
2017-09-03 03:00:00 9.4 0 Calma 5 Este 0 -- -- 81
2017-09-03 02:00:00 9.6 3 Nordeste 5 Nordeste 0 -- -- 82
2017-09-03 01:00:00 10.2 3 Sudeste 4 Sudeste 0 -- -- 79
2017-09-03 00:00:00 11.6 3 Sudeste 5 Este 0 -- -- 71
2017-09-02 23:00:00 14.2 2 Este 6 Sudoeste 0 -- -- 54
2017-09-02 22:00:00 17.7 3 Oeste 13 Noroeste 0 -- -- 39
2017-09-02 21:00:00 18.8 12 Oeste 19 Oeste 0 -- -- 36
2017-09-02 20:00:00 21.9 13 Oeste 22 Oeste 0 -- -- 29
2017-09-02 19:00:00 23.3 13 Oeste 30 Oeste 0 -- -- 25
2017-09-02 18:00:00 24 13 Oeste 22 Sudoeste 0 -- -- 26
2017-09-02 17:00:00 23.7 13 Sudoeste 30 Oeste 0 -- -- 28
2017-09-02 16:00:00 23.1 8 Sur 15 Sur 0 -- -- 30
2017-09-02 15:00:00 20.5 9 Sudoeste 15 Oeste 0 -- -- 36
2017-09-02 14:00:00 20.7 5 Este 14 Oeste 0 -- -- 38
2017-09-02 13:00:00 18.2 4 Noroeste 12 Sur 0 -- -- 45
2017-09-02 12:00:00 16.8 3 Sudoeste 12 Sudoeste 0 -- -- 51
2017-09-02 11:00:00 14.2 4 Sur 11 Sur 0 -- -- 63
2017-09-02 10:00:00 11.3 2 Este 6 Este 0 -- -- 77
2017-09-02 09:00:00 6.4 3 Este 7 Este 0 -- -- 95
2017-09-02 08:00:00 4.5 0 Calma -- -- 0 -- -- 96
2017-09-02 07:00:00 5.1 0 Calma 6 Nordeste 0 -- -- 96
2017-09-02 06:00:00 5 2 Este 4 Sudeste 0 -- -- 94
2017-09-02 05:00:00 5.9 2 Este 4 Este 0 -- -- 93
2017-09-02 04:00:00 6.7 2 Nordeste 4 Sudeste 0 -- -- 92
2017-09-02 03:00:00 7.9 3 Nordeste 5 Norte 0 -- -- 89
2017-09-02 02:00:00 9 3 Nordeste 5 Este 0 -- -- 84
2017-09-02 01:00:00 10.5 0 Calma 7 Noroeste 0 -- -- 77
2017-09-02 00:00:00 12.2 2 Oeste 6 Este 0 -- -- 66
2017-09-01 23:00:00 13.2 7 Nordeste 12 Noroeste 0 -- -- 64
2017-09-01 22:00:00 14.2 6 Norte 25 Norte 0 -- -- 59
2017-09-01 21:00:00 16.7 14 Norte 28 Noroeste 0 -- -- 48
2017-09-01 20:00:00 19.8 16 Noroeste 25 Norte 0 -- -- 40
2017-09-01 19:00:00 21.9 14 Oeste 26 Oeste 0 -- -- 33
2017-09-01 18:00:00 21.6 19 Noroeste 42 Oeste 0 -- -- 36
2017-09-01 17:00:00 22 19 Noroeste 32 Oeste 0 -- -- 34
2017-09-01 16:00:00 21.3 16 Noroeste 31 Noroeste 0 -- -- 39
2017-09-01 15:00:00 21.7 10 Noroeste 23 Noroeste 0 -- -- 38
2017-09-01 14:00:00 21.5 9 Oeste 32 Oeste 0 -- -- 39
2017-09-01 13:00:00 21.1 4 Este 17 Este 0 -- -- 42
2017-09-01 12:00:00 19.2 9 Este 20 Sudeste 0 -- -- 50
2017-09-01 11:00:00 16.8 14 Este 23 Este 0 -- -- 58
2017-09-01 10:00:00 14.1 12 Este 16 Este 0 -- -- 74
2017-09-01 09:00:00 9.9 3 Este 5 Nordeste 0 -- -- 95
2017-09-01 08:00:00 7.5 4 Este 6 Nordeste 0 -- -- 96
2017-09-01 07:00:00 8.1 2 Este 7 Nordeste 0 -- -- 95
2017-09-01 06:00:00 8.8 0 Calma 6 Este 0 -- -- 95
2017-09-01 05:00:00 9.9 3 Nordeste 6 Nordeste 0 -- -- 92
2017-09-01 04:00:00 10.9 4 Este 8 Este 0 -- -- 88
2017-09-01 03:00:00 11.7 6 Este 12 Este 0 -- -- 85
2017-09-01 02:00:00 12.4 8 Este 15 Este 0 -- -- 82
2017-09-01 01:00:00 13.1 8 Este 13 Este 0 -- -- 80
2017-09-01 00:00:00 13.9 10 Este 19 Este 0 -- -- 76
2017-08-31 23:00:00 14.7 4 Este 19 Este 0 -- -- 73
2017-08-31 22:00:00 16.2 14 Este 25 Este 0 -- -- 68
2017-08-31 21:00:00 18.6 9 Noroeste 17 Oeste 0 -- -- 57
2017-08-31 20:00:00 21.5 14 Noroeste 22 Noroeste 0 -- -- 48
2017-08-31 19:00:00 22.5 9 Noroeste 22 Noroeste 0 -- -- 44
2017-08-31 18:00:00 23 13 Noroeste 24 Oeste 0 -- -- 43
2017-08-31 17:00:00 22 8 Oeste 27 Oeste 0 -- -- 45
2017-08-31 16:00:00 23.5 6 Noroeste 21 Oeste 0 -- -- 43
2017-08-31 15:00:00 23 6 Nordeste 14 Nordeste 0 -- -- 46
2017-08-31 14:00:00 20.9 5 Este 18 Este 0 -- -- 56
2017-08-31 13:00:00 20 9 Este 23 Este 0 -- -- 57
2017-08-31 12:00:00 17.4 15 Este 24 Sudeste 0 -- -- 66
2017-08-31 11:00:00 16.4 14 Este 20 Este 0 -- -- 72
2017-08-31 10:00:00 13.9 13 Este 19 Sudeste 0 -- -- 83
2017-08-31 09:00:00 13.2 11 Sudeste 14 Este 0 -- -- 87
2017-08-31 08:00:00 13.5 8 Sudeste 17 Sudeste 0 -- -- 89
2017-08-31 07:00:00 14 7 Este 15 Este 0 -- -- 94
2017-08-31 06:00:00 14.1 8 Este 11 Este 0 -- -- 95
2017-08-31 05:00:00 14.3 3 Norte 8 Nordeste 0 -- -- 95
2017-08-31 04:00:00 14.2 4 Nordeste 8 Nordeste 0 -- -- 95
2017-08-31 03:00:00 14.3 3 Sur 13 Oeste 1.2 -- -- 94
2017-08-31 02:00:00 14.4 12 Oeste 16 Oeste 1.2 -- -- 92
2017-08-31 01:00:00 15 10 Sudoeste 19 Norte 0.2 -- -- 86
2017-08-31 00:00:00 15.4 15 Norte 34 Noroeste 0 -- -- 80
2017-08-30 23:00:00 16.6 9 Noroeste 14 Noroeste 0 -- -- 74
2017-08-30 22:00:00 15.9 5 Nordeste 12 Este 0 -- -- 77
2017-08-30 21:00:00 18.1 6 Este 15 Sudeste 0 -- -- 69
2017-08-30 20:00:00 19.9 9 Sudeste 16 Sudeste 0 -- -- 61
2017-08-30 19:00:00 21.2 0 Calma 21 Oeste 0 -- -- 53
2017-08-30 18:00:00 21.9 10 Sudoeste 20 Oeste 0 -- -- 47
2017-08-30 17:00:00 21.6 11 Oeste 23 Oeste 0 -- -- 51
2017-08-30 16:00:00 21.9 10 Noroeste 34 Oeste 0 -- -- 52
2017-08-30 15:00:00 22.1 8 Sudoeste 18 Noroeste 0 -- -- 52
2017-08-30 14:00:00 20.8 12 Oeste 22 Oeste 0 -- -- 56
2017-08-30 13:00:00 22.1 9 Oeste 18 Noroeste 0 -- -- 52
2017-08-30 12:00:00 20.4 6 Sudoeste 12 Sudoeste 0 -- -- 60
2017-08-30 11:00:00 18.2 3 Sudoeste 10 Este 0 -- -- 75
2017-08-30 10:00:00 15.3 3 Este 6 Sudeste 0 -- -- 92
2017-08-30 09:00:00 13 0 Calma 7 Oeste 0 -- -- 96
2017-08-30 08:00:00 12.4 2 Oeste 4 Oeste 0 -- -- 97
2017-08-30 07:00:00 12.2 3 Sudeste 7 Este 0 -- -- 96
2017-08-30 06:00:00 12.5 5 Nordeste 9 Nordeste 0 -- -- 95
2017-08-30 05:00:00 13 2 Este 8 Este 0 -- -- 95
2017-08-30 04:00:00 13.7 4 Nordeste 9 Este 0 -- -- 95
2017-08-30 03:00:00 14 3 Este 8 Nordeste 0 -- -- 93
2017-08-30 02:00:00 14.7 4 Norte 9 Nordeste 0 -- -- 91
2017-08-30 01:00:00 14.8 9 Este 15 Este 0 -- -- 91
2017-08-30 00:00:00 14.9 9 Este 14 Este 0 -- -- 91
2017-08-29 23:00:00 15.5 8 Este 14 Este 0 -- -- 85
2017-08-29 22:00:00 16.7 14 Este 28 Este 0 -- -- 79
2017-08-29 21:00:00 18.1 4 Norte 9 Norte 0 -- -- 69
2017-08-29 20:00:00 18.8 4 Norte 14 Oeste 0 -- -- 63
2017-08-29 19:00:00 18.6 10 Oeste 25 Oeste 0 -- -- 68
2017-08-29 18:00:00 19.8 22 Sudoeste 32 Sudoeste 0 -- -- 62
2017-08-29 17:00:00 21.1 27 Este 37 Este 0 -- -- 57
2017-08-29 16:00:00 24.4 6 Sur 27 Sudeste 0 -- -- 44
2017-08-29 15:00:00 25.2 11 Sur 25 Sudeste 0 -- -- 42
2017-08-29 14:00:00 23.5 18 Sudeste 28 Sudeste 0 -- -- 45
2017-08-29 13:00:00 22.7 10 Sudeste 19 Este 0 -- -- 56
2017-08-29 12:00:00 20.9 13 Este 19 Este 0 -- -- 66
2017-08-29 11:00:00 18.2 8 Este 22 Nordeste 0 -- -- 77
2017-08-29 10:00:00 15.2 14 Este 22 Este 0 -- -- 90
2017-08-29 09:00:00 13.2 10 Este 21 Este 0 -- -- 96
2017-08-29 08:00:00 12.7 13 Este 22 Este 0 -- -- 96
2017-08-29 07:00:00 13 16 Este 22 Este 0 -- -- 96
2017-08-29 06:00:00 13.1 9 Este 19 Este 0 -- -- 96
2017-08-29 05:00:00 13.2 15 Este 22 Este 0.2 -- -- 96
2017-08-29 04:00:00 13.6 9 Este 15 Este 0 -- -- 96
2017-08-29 03:00:00 13.2 8 Este 15 Este 0 -- -- 97
2017-08-29 02:00:00 12.9 10 Este 14 Este 0 -- -- 97
2017-08-29 01:00:00 13.1 6 Este 13 Este 0 -- -- 97
2017-08-29 00:00:00 13.6 5 Sudeste 15 Sur 0 -- -- 96
2017-08-28 23:00:00 13.7 5 Este 16 Norte 0 -- -- 96
2017-08-28 22:00:00 13.7 10 Norte 22 Este 6.8 -- -- 96
2017-08-28 21:00:00 13.9 3 Sudeste 13 Este 3.8 -- -- 95
2017-08-28 20:00:00 13.9 10 Este 18 Este 5 -- -- 93
2017-08-28 19:00:00 14.1 14 Nordeste 23 Nordeste 0.4 -- -- 92
2017-08-28 18:00:00 14 16 Nordeste 25 Nordeste 12.2 -- -- 93
2017-08-28 17:00:00 14.1 13 Este 49 Oeste 2.6 -- -- 90
2017-08-28 16:00:00 15.7 24 Noroeste 54 Oeste 2 -- -- 85
2017-08-28 15:00:00 21.1 14 Norte 21 Norte 0 -- -- 69
2017-08-28 14:00:00 20.7 12 Norte 18 Norte 0 -- -- 76
2017-08-28 13:00:00 20 3 Norte 15 Este 0 -- -- 77
2017-08-28 12:00:00 19.4 12 Este 20 Este 0 -- -- 79
2017-08-28 11:00:00 19 12 Este 19 Nordeste 0 -- -- 83
2017-08-28 10:00:00 16 9 Nordeste 17 Este 5.4 -- -- 93
2017-08-28 09:00:00 15 9 Este 24 Este 6.4 -- -- 93
2017-08-28 08:00:00 14.6 4 Norte 21 Nordeste 0.4 -- -- 89
2017-08-28 07:00:00 14.9 5 Este 9 Este 0 -- -- 87
2017-08-28 06:00:00 15.1 5 Este 15 Este 0 -- -- 84
2017-08-28 05:00:00 15.6 10 Este 23 Este 0 -- -- 83
2017-08-28 04:00:00 15.9 5 Nordeste 15 Nordeste 0 -- -- 82
2017-08-28 03:00:00 15.9 5 Nordeste 17 Nordeste 0 -- -- 85
2017-08-28 02:00:00 16.2 8 Este 15 Este 0 -- -- 84
2017-08-28 01:00:00 15.8 7 Este 15 Este 0 -- -- 86
2017-08-28 00:00:00 16.2 11 Este 15 Este 0 -- -- 86
2017-08-27 23:00:00 15.5 6 Este 14 Oeste 0 -- -- 84
2017-08-27 22:00:00 15.8 3 Nordeste 25 Sudoeste 0 -- -- 76
2017-08-27 21:00:00 18.9 10 Este 37 Este 0 -- -- 81
2017-08-27 20:00:00 19.4 26 Este 39 Este 0 -- -- 76
2017-08-27 19:00:00 19.8 23 Este 36 Este 0 -- -- 74
2017-08-27 18:00:00 19.9 20 Este 28 Este 0 -- -- 73
2017-08-27 17:00:00 18.9 15 Este 25 Este 0 -- -- 78
2017-08-27 16:00:00 18.9 14 Este 23 Nordeste 0 -- -- 80
2017-08-27 15:00:00 17 17 Nordeste 57 Oeste 2.6 -- -- 89
2017-08-27 14:00:00 22.9 15 Este 24 Este 0 -- -- 52
2017-08-27 13:00:00 23.1 14 Este 22 Este 0 -- -- 56
2017-08-27 12:00:00 20.3 2 Noroeste 14 Este 0.2 -- -- 71
2017-08-27 11:00:00 18.5 9 Este 15 Sudeste 0.2 -- -- 74
2017-08-27 10:00:00 17.7 10 Este 21 Este 0.4 -- -- 70
2017-08-27 09:00:00 17.3 8 Este 11 Este 0 -- -- 66
2017-08-27 08:00:00 17.6 5 Este 10 Este 0 -- -- 56
2017-08-27 07:00:00 17.3 9 Este 12 Este 0 -- -- 57
2017-08-27 06:00:00 17.2 6 Este 12 Este 0 -- -- 56
2017-08-27 05:00:00 17.7 4 Este 13 Este 0 -- -- 53
2017-08-27 04:00:00 18.2 6 Este 15 Este 0 -- -- 50
2017-08-27 03:00:00 19.7 12 Este 25 Este 0 -- -- 46
2017-08-27 02:00:00 21.2 19 Este 30 Este 0 -- -- 42
2017-08-27 01:00:00 21.6 15 Este 24 Este 0 -- -- 39
2017-08-27 00:00:00 21.2 7 Este 15 Sudeste 0 -- -- 40
2017-08-26 23:00:00 22 8 Este 13 Sudeste 0 -- -- 38
2017-08-26 22:00:00 23.9 4 Sur 33 Sudoeste 0 -- -- 34
2017-08-26 21:00:00 24.9 26 Oeste 44 Sudoeste 0 -- -- 32
2017-08-26 20:00:00 25.4 34 Oeste 50 Sudoeste 0 -- -- 30
2017-08-26 19:00:00 26.7 39 Sudoeste 59 Sudoeste 0 -- -- 27
2017-08-26 18:00:00 27.2 32 Oeste 49 Sudoeste 0 -- -- 27
2017-08-26 17:00:00 29 24 Oeste 38 Oeste 0 -- -- 20
2017-08-26 16:00:00 29.6 18 Noroeste 30 Sudoeste 0 -- -- 18
2017-08-26 15:00:00 30.1 10 Sudoeste 46 Oeste 0 -- -- 20
2017-08-26 14:00:00 29.7 30 Oeste 42 Oeste 0 -- -- 19
2017-08-26 13:00:00 28.8 13 Oeste 22 Oeste 0 -- -- 22
2017-08-26 12:00:00 30 4 Sur 13 Este 0 -- -- 23
2017-08-26 11:00:00 25.6 10 Este 14 Este 0 -- -- 36
2017-08-26 10:00:00 21.2 5 Este 8 Este 0 -- -- 44
2017-08-26 09:00:00 14.4 4 Este 12 Este 0 -- -- 56
2017-08-26 08:00:00 10.7 3 Nordeste 9 Este 0 -- -- 63
2017-08-26 07:00:00 11.6 4 Este 6 Nordeste 0 -- -- 60
2017-08-26 06:00:00 11.5 3 Nordeste 9 Nordeste 0 -- -- 57
2017-08-26 05:00:00 11.6 4 Nordeste 8 Nordeste 0 -- -- 56
2017-08-26 04:00:00 12.3 4 Este 8 Este 0 -- -- 54
2017-08-26 03:00:00 12.6 5 Este 12 Este 0 -- -- 54
2017-08-26 02:00:00 16.4 0 Calma 8 Sudeste 0 -- -- 43
2017-08-26 01:00:00 16.4 3 Sudeste 6 Sudeste 0 -- -- 44
2017-08-26 00:00:00 18.7 3 Sudeste 6 Sudeste 0 -- -- 37
2017-08-25 23:00:00 22.7 5 Oeste 11 Oeste 0 -- -- 27
2017-08-25 22:00:00 23.6 8 Oeste 15 Sudoeste 0 -- -- 24
2017-08-25 21:00:00 27.7 15 Sudoeste 29 Sudoeste 0 -- -- 20
2017-08-25 20:00:00 30.6 15 Sudoeste 40 Sur 0 -- -- 18
2017-08-25 19:00:00 31.5 25 Sudoeste 40 Sur 0 -- -- 18
2017-08-25 18:00:00 32.9 17 Oeste 37 Oeste 0 -- -- 16
2017-08-25 17:00:00 33.8 18 Sudoeste 41 Oeste 0 -- -- 15
2017-08-25 16:00:00 32.5 18 Oeste 40 Oeste 0 -- -- 18
2017-08-25 15:00:00 32.2 8 Nordeste 28 Noroeste 0 -- -- 18
2017-08-25 14:00:00 30.8 12 Oeste 22 Sudoeste 0 -- -- 20
2017-08-25 13:00:00 29.7 10 Oeste 19 Oeste 0 -- -- 20
2017-08-25 12:00:00 27 8 Noroeste 17 Sudoeste 0 -- -- 23
2017-08-25 11:00:00 25.1 5 Noroeste 10 Oeste 0 -- -- 26
2017-08-25 10:00:00 19.4 3 Este 6 Sudeste 0 -- -- 39
2017-08-25 09:00:00 14.9 0 Calma 6 Este 0 -- -- 51
2017-08-25 08:00:00 11.9 3 Nordeste 6 Nordeste 0 -- -- 57
2017-08-25 07:00:00 11.2 3 Nordeste 8 Nordeste 0 -- -- 59
2017-08-25 06:00:00 10 5 Este 9 Este 0 -- -- 65
2017-08-25 05:00:00 11.8 7 Nordeste 9 Este 0 -- -- 57
2017-08-25 04:00:00 12.3 3 Este 6 Este 0 -- -- 58
2017-08-25 03:00:00 13 3 Sudeste 6 Sudeste 0 -- -- 56
2017-08-25 02:00:00 14.9 4 Sudeste 5 Sudeste 0 -- -- 50
2017-08-25 01:00:00 18.4 2 Sur 14 Oeste 0 -- -- 37
2017-08-25 00:00:00 22.4 6 Oeste 9 Noroeste 0 -- -- 28
2017-08-24 23:00:00 22.4 11 Oeste 14 Sudoeste 0 -- -- 27
2017-08-24 22:00:00 23.9 7 Oeste 29 Oeste 0 -- -- 24
2017-08-24 21:00:00 28.1 17 Oeste 26 Oeste 0 -- -- 19
2017-08-24 20:00:00 31.6 18 Sudoeste 33 Sudoeste 0 -- -- 18
2017-08-24 19:00:00 32.7 19 Sudoeste 37 Oeste 0 -- -- 18
2017-08-24 18:00:00 33.3 17 Sur 38 Sudoeste 0 -- -- 19
2017-08-24 17:00:00 33.3 14 Sur 45 Sudoeste 0 -- -- 18
2017-08-24 16:00:00 33.3 24 Sur 46 Sudoeste 0 -- -- 17
2017-08-24 15:00:00 33.1 26 Sudoeste 45 Sudoeste 0 -- -- 18
2017-08-24 14:00:00 32.3 26 Sudoeste 44 Sur 0 -- -- 22
2017-08-24 13:00:00 32.1 12 Sur 22 Sur 0 -- -- 24
2017-08-24 12:00:00 28.3 12 Este 22 Este 0 -- -- 40
2017-08-24 11:00:00 23.4 16 Este 25 Este 0 -- -- 54
2017-08-24 10:00:00 21.2 17 Este 29 Este 0 -- -- 62
2017-08-24 09:00:00 18.6 18 Este 27 Este 0 -- -- 69
2017-08-24 08:00:00 16.5 10 Este 17 Este 0 -- -- 75
2017-08-24 07:00:00 17.1 12 Este 21 Este 0 -- -- 75
2017-08-24 06:00:00 17.9 15 Este 23 Este 0 -- -- 75
2017-08-24 05:00:00 18.3 9 Este 15 Este 0 -- -- 79
2017-08-24 04:00:00 18.6 11 Este 17 Este 0 -- -- 72
2017-08-24 03:00:00 18.8 9 Nordeste 13 Nordeste 0 -- -- 64
2017-08-24 02:00:00 18.9 5 Este 10 Este 0 -- -- 56
2017-08-24 01:00:00 18.7 0 Calma 14 Nordeste 0 -- -- 61
2017-08-24 00:00:00 19.9 15 Nordeste 33 Este 0 -- -- 57